Terminal Aerodrome Forecast
Issued by NWS

Current Version | Previous Version | Text Only | Print | Product List | Glossary On
Versions: 1 2 3 4 5 6 7 8 9 10 11 12 13 14 15 16 17 18 19 20 21 22 23 24 25 26 27 28 29 30 31 32 33 34 35 36 37 38 39 40 41 42 43 44 45 46 47 48 49 50
201
FTUS42 KRAH 010003 CCA
TAFRWI
TAF COR
KRWI 010003Z 0100/0124 10003KT P6SM FEW019 OVC045
     FM010400 10007KT P6SM OVC007
     FM011500 19010KT P6SM SCT015 OVC045
     FM011800 20010KT P6SM OVC050 PROB30 0118/0121 P6SM -RA OVC050=

USA.gov is the U.S. government's official web portal to all federal, state and local government web resources and services.